createdAt,value
2019-02-20T00:00:58.711Z,94.30
2019-02-20T00:03:24.756Z,94.60
2019-02-20T00:05:50.767Z,94.50
2019-02-20T00:08:16.860Z,94.40
2019-02-20T00:10:42.883Z,94.50
2019-02-20T00:13:08.990Z,94.30
2019-02-20T00:15:35.303Z,94.00
2019-02-20T00:18:03.067Z,93.90
2019-02-20T00:20:29.152Z,94.00
2019-02-20T00:22:55.181Z,94.20
2019-02-20T00:25:21.191Z,94.70
2019-02-20T00:27:47.223Z,94.80
2019-02-20T00:30:13.231Z,95.10
2019-02-20T00:32:39.260Z,95.20
2019-02-20T00:35:05.471Z,95.30
2019-02-20T00:37:31.539Z,95.20
2019-02-20T00:39:57.537Z,95.30
2019-02-20T00:42:23.944Z,95.20
2019-02-20T00:44:54.623Z,94.90
2019-02-20T00:47:38.935Z,95.00
2019-02-20T00:50:05.152Z,94.90
2019-02-20T00:52:35.889Z,94.80
2019-02-20T00:55:06.103Z,94.70
2019-02-20T00:57:35.255Z,95.10
2019-02-20T01:00:02.377Z,95.00
2019-02-20T01:02:28.487Z,94.90
2019-02-20T01:04:54.524Z,95.00
2019-02-20T01:07:20.535Z,94.60
2019-02-20T01:09:46.568Z,94.60
2019-02-20T01:12:12.580Z,94.70
2019-02-20T01:14:38.655Z,94.60
2019-02-20T01:17:04.772Z,94.30
2019-02-20T01:19:30.804Z,94.00
2019-02-20T01:21:56.833Z,93.80
2019-02-20T01:24:22.848Z,94.00
2019-02-20T01:26:48.870Z,94.20
2019-02-20T01:29:14.891Z,94.40
2019-02-20T01:31:40.899Z,94.40
2019-02-20T01:34:06.931Z,94.40
2019-02-20T01:36:32.947Z,94.30
2019-02-20T01:38:58.979Z,94.40
2019-02-20T01:41:25.016Z,94.40
2019-02-20T01:43:51.040Z,94.30
2019-02-20T01:46:17.055Z,94.40
2019-02-20T01:48:43.092Z,94.50
2019-02-20T01:51:09.161Z,94.60
2019-02-20T01:53:35.179Z,94.80
2019-02-20T01:56:01.203Z,94.50
2019-02-20T01:58:27.235Z,94.60
2019-02-20T02:00:53.352Z,94.50
2019-02-20T02:03:19.392Z,94.40
2019-02-20T02:05:45.404Z,94.30
2019-02-20T02:08:11.456Z,94.40
2019-02-20T02:10:37.471Z,94.40
2019-02-20T02:13:03.491Z,94.30
2019-02-20T02:15:29.531Z,94.30
2019-02-20T02:17:55.540Z,94.60
2019-02-20T02:20:21.590Z,94.50
2019-02-20T02:22:47.604Z,94.60
2019-02-20T02:25:13.640Z,94.50
2019-02-20T02:27:39.653Z,94.40
2019-02-20T02:30:09.566Z,94.30
2019-02-20T02:32:35.581Z,94.00
2019-02-20T02:35:01.810Z,93.80
2019-02-20T02:37:27.828Z,93.50
2019-02-20T02:39:53.854Z,93.50
2019-02-20T02:42:19.964Z,93.30
2019-02-20T02:44:45.997Z,93.20
2019-02-20T02:47:13.087Z,93.00
2019-02-20T02:49:39.220Z,92.80
2019-02-20T02:52:05.232Z,92.60
2019-02-20T02:54:31.265Z,92.50
2019-02-20T02:56:57.275Z,92.10
2019-02-20T02:59:23.315Z,91.80
2019-02-20T03:01:49.322Z,91.90
2019-02-20T03:04:15.368Z,91.80
2019-02-20T03:06:41.381Z,91.70
2019-02-20T03:09:07.913Z,91.90
2019-02-20T03:11:34.016Z,92.10
2019-02-20T03:14:00.143Z,92.30
2019-02-20T03:16:26.160Z,92.60
2019-02-20T03:18:52.194Z,92.00
2019-02-20T03:21:18.241Z,92.20
2019-02-20T03:23:44.260Z,92.40
2019-02-20T03:28:42.283Z,92.80
2019-02-20T03:31:08.320Z,93.00
2019-02-20T03:33:34.365Z,92.90
2019-02-20T03:36:02.255Z,92.80
2019-02-20T03:38:30.579Z,92.90
2019-02-20T03:40:56.204Z,93.40
2019-02-20T03:43:22.338Z,93.50
2019-02-20T03:45:48.367Z,94.00
2019-02-20T03:48:34.285Z,94.10
2019-02-20T03:51:00.319Z,94.10
2019-02-20T03:53:26.333Z,96.20
2019-02-20T03:55:52.667Z,96.80
2019-02-20T03:58:18.737Z,96.90
2019-02-20T04:00:44.766Z,96.10
2019-02-20T04:03:10.788Z,97.30
2019-02-20T04:05:36.825Z,96.70
2019-02-20T04:08:02.855Z,96.00
2019-02-20T04:10:28.896Z,96.10
2019-02-20T04:12:55.006Z,95.50
2019-02-20T04:15:21.025Z,95.20
2019-02-20T04:17:47.057Z,95.40
2019-02-20T04:20:13.076Z,96.20
2019-02-20T04:22:39.108Z,95.90
2019-02-20T04:25:05.241Z,96.00
2019-02-20T04:27:31.252Z,95.40
2019-02-20T04:29:57.291Z,95.20
2019-02-20T04:32:23.304Z,95.60
2019-02-20T04:34:49.341Z,95.60
2019-02-20T04:37:15.353Z,95.90
2019-02-20T04:39:41.393Z,96.10
2019-02-20T04:42:07.404Z,96.00
2019-02-20T04:44:33.436Z,96.00
2019-02-20T04:46:59.459Z,95.90
2019-02-20T04:49:25.488Z,95.80
2019-02-20T04:51:51.573Z,95.60
2019-02-20T04:54:17.659Z,95.90
2019-02-20T04:56:43.764Z,96.10
2019-02-20T04:59:09.896Z,95.40
2019-02-20T05:01:35.918Z,95.80
2019-02-20T05:04:02.097Z,96.50
2019-02-20T05:06:28.195Z,96.80
2019-02-20T05:08:54.245Z,96.30
2019-02-20T05:11:20.324Z,95.60
2019-02-20T05:13:46.372Z,95.40
2019-02-20T05:16:12.379Z,95.80
2019-02-20T05:18:38.427Z,96.10
2019-02-20T05:21:04.447Z,95.60
2019-02-20T05:23:30.496Z,96.20
2019-02-20T05:25:56.503Z,96.00
2019-02-20T05:28:22.539Z,95.70
2019-02-20T05:30:48.553Z,95.30
2019-02-20T05:33:14.581Z,95.60
2019-02-20T05:35:40.612Z,95.10
2019-02-20T05:38:06.625Z,94.80
2019-02-20T05:40:32.683Z,95.10
2019-02-20T05:42:58.695Z,95.00
2019-02-20T05:45:24.727Z,94.60
2019-02-20T05:47:50.841Z,94.40
2019-02-20T05:50:16.892Z,94.70
2019-02-20T05:52:42.914Z,94.40
2019-02-20T05:55:08.955Z,94.70
2019-02-20T05:57:36.517Z,94.80
2019-02-20T06:00:06.571Z,94.90
2019-02-20T06:02:32.619Z,94.60
2019-02-20T06:04:58.800Z,94.40
2019-02-20T06:07:24.841Z,94.60
2019-02-20T06:09:50.890Z,94.20
2019-02-20T06:12:16.904Z,94.00
2019-02-20T06:14:42.942Z,93.90
2019-02-20T06:17:09.028Z,94.00
2019-02-20T06:19:35.100Z,94.10
2019-02-20T06:22:01.118Z,94.20
2019-02-20T06:24:27.156Z,94.00
2019-02-20T06:26:53.174Z,94.10
2019-02-20T06:29:20.287Z,94.10
2019-02-20T06:31:46.565Z,94.10
2019-02-20T06:34:12.664Z,94.10
2019-02-20T06:36:38.679Z,94.10
2019-02-20T06:39:04.801Z,93.80
2019-02-20T06:41:38.639Z,93.90
2019-02-20T06:43:58.752Z,93.80
2019-02-20T06:46:24.763Z,93.80
2019-02-20T06:48:50.783Z,93.60
2019-02-20T06:51:16.827Z,93.60
2019-02-20T06:53:42.844Z,93.60
2019-02-20T06:56:08.875Z,93.50
2019-02-20T06:58:34.965Z,93.30
2019-02-20T07:01:01.079Z,93.10
2019-02-20T07:03:27.206Z,93.10
2019-02-20T07:05:59.962Z,93.30
2019-02-20T07:08:57.563Z,93.30
2019-02-20T07:11:33.474Z,93.10
2019-02-20T07:14:21.174Z,93.20
2019-02-20T07:16:50.995Z,93.20
2019-02-20T07:19:23.860Z,93.20
2019-02-20T07:21:59.807Z,93.10
2019-02-20T07:24:32.682Z,93.00
2019-02-20T07:27:05.105Z,92.80
2019-02-20T07:29:47.391Z,92.80
2019-02-20T07:32:14.907Z,92.60
2019-02-20T07:34:40.943Z,92.50
2019-02-20T07:37:06.955Z,91.40
2019-02-20T07:39:32.993Z,91.60
2019-02-20T07:41:59.020Z,91.40
2019-02-20T07:44:25.073Z,91.70
2019-02-20T07:46:51.067Z,91.80
2019-02-20T07:49:17.102Z,91.40
2019-02-20T07:51:43.184Z,91.70
2019-02-20T07:54:09.239Z,91.60
2019-02-20T07:56:35.256Z,91.70
2019-02-20T07:59:02.107Z,91.30
2019-02-20T08:01:28.120Z,91.10
2019-02-20T08:03:54.169Z,91.20
2019-02-20T08:06:20.187Z,91.00
2019-02-20T08:08:46.224Z,91.00
2019-02-20T08:11:12.245Z,91.00
2019-02-20T08:13:39.534Z,91.20
2019-02-20T08:16:05.702Z,91.00
2019-02-20T08:18:31.716Z,91.00
2019-02-20T08:20:57.748Z,90.80
2019-02-20T08:23:23.767Z,90.80
2019-02-20T08:25:49.824Z,90.70
2019-02-20T08:28:15.838Z,90.10
2019-02-20T08:30:41.868Z,89.80
2019-02-20T08:33:07.987Z,90.50
2019-02-20T08:35:34.016Z,90.30
2019-02-20T08:38:00.033Z,90.70
2019-02-20T08:40:26.079Z,91.30
2019-02-20T08:42:52.096Z,89.60
2019-02-20T08:45:18.137Z,90.10
2019-02-20T08:47:44.141Z,90.30
2019-02-20T08:50:11.380Z,88.00
2019-02-20T08:52:37.423Z,89.20
2019-02-20T08:55:08.419Z,88.80
2019-02-20T08:57:34.432Z,88.80
2019-02-20T09:00:02.071Z,89.50
2019-02-20T09:02:28.147Z,91.00
2019-02-20T09:04:54.823Z,90.00
2019-02-20T09:07:21.107Z,90.00
2019-02-20T09:09:47.139Z,89.40
2019-02-20T09:12:13.155Z,89.40
2019-02-20T09:14:39.195Z,89.40
2019-02-20T09:17:05.225Z,90.00
2019-02-20T09:19:31.327Z,90.20
2019-02-20T09:21:57.343Z,90.20
2019-02-20T09:24:23.383Z,89.90
2019-02-20T09:26:49.401Z,88.50
2019-02-20T09:29:15.415Z,88.90
2019-02-20T09:31:41.463Z,89.20
2019-02-20T09:34:07.480Z,88.80
2019-02-20T09:36:33.591Z,88.20
2019-02-20T09:39:21.419Z,87.90
2019-02-20T09:41:47.455Z,88.50
2019-02-20T09:44:13.467Z,87.90
2019-02-20T09:46:39.507Z,89.20
2019-02-20T09:49:05.520Z,87.90
2019-02-20T09:51:31.568Z,88.60
2019-02-20T09:53:57.599Z,89.90
2019-02-20T09:56:23.633Z,89.60
2019-02-20T09:58:49.654Z,90.10
2019-02-20T10:01:15.708Z,89.70
2019-02-20T10:03:41.728Z,89.60
2019-02-20T10:06:07.779Z,89.20
2019-02-20T10:08:33.806Z,88.90
2019-02-20T10:10:59.841Z,89.00
2019-02-20T10:13:25.859Z,89.30
2019-02-20T10:15:51.937Z,88.60
2019-02-20T10:18:18.020Z,88.60
2019-02-20T10:20:44.055Z,88.80
2019-02-20T10:23:10.175Z,88.50
2019-02-20T10:25:36.214Z,88.00
2019-02-20T10:28:02.319Z,87.60
2019-02-20T10:30:28.358Z,87.30
2019-02-20T10:32:54.375Z,86.50
2019-02-20T10:35:20.420Z,85.20
2019-02-20T10:37:46.425Z,85.40
2019-02-20T10:40:12.571Z,85.30
2019-02-20T10:42:38.588Z,84.80
2019-02-20T10:45:07.723Z,84.60
2019-02-20T10:47:33.749Z,83.70
2019-02-20T10:49:59.771Z,84.70
2019-02-20T10:52:25.804Z,85.30
2019-02-20T10:54:57.534Z,85.40
2019-02-20T10:57:19.759Z,86.00
2019-02-20T10:59:45.777Z,86.00
2019-02-20T11:02:12.016Z,86.50
2019-02-20T11:04:38.092Z,86.60
2019-02-20T11:07:04.227Z,86.50
2019-02-20T11:09:31.859Z,86.90
2019-02-20T11:11:58.079Z,87.00
2019-02-20T11:14:24.100Z,86.80
2019-02-20T11:16:50.148Z,86.10
2019-02-20T11:19:16.176Z,85.70
2019-02-20T11:21:42.220Z,85.90
2019-02-20T11:24:08.231Z,84.80
2019-02-20T11:26:42.211Z,84.50
2019-02-20T11:29:02.201Z,84.10
2019-02-20T11:31:28.227Z,83.30
2019-02-20T11:33:54.348Z,83.30
2019-02-20T11:36:20.390Z,82.90
2019-02-20T11:38:46.399Z,82.70
2019-02-20T11:41:13.526Z,82.20
2019-02-20T11:43:39.755Z,82.40
2019-02-20T11:46:05.790Z,82.00
2019-02-20T11:48:31.807Z,81.70
2019-02-20T11:50:57.866Z,81.60
2019-02-20T11:53:23.891Z,81.00
2019-02-20T11:55:49.923Z,80.30
2019-02-20T11:58:15.939Z,79.50
2019-02-20T12:00:42.019Z,78.40
2019-02-20T12:03:08.087Z,77.10
2019-02-20T12:05:34.169Z,76.20
2019-02-20T12:08:00.179Z,74.20
2019-02-20T12:10:26.194Z,73.00
2019-02-20T12:12:52.226Z,72.30
2019-02-20T12:15:18.241Z,71.30
2019-02-20T12:17:46.449Z,71.10
2019-02-20T12:20:12.470Z,71.50
2019-02-20T12:22:38.523Z,72.50
2019-02-20T12:25:06.544Z,72.60
2019-02-20T12:27:33.175Z,71.50
2019-02-20T12:29:59.388Z,71.00
2019-02-20T12:32:25.438Z,70.70
2019-02-20T12:34:51.456Z,71.10
2019-02-20T12:37:17.505Z,70.60
2019-02-20T12:39:43.511Z,70.90
2019-02-20T12:42:09.577Z,70.20
2019-02-20T12:44:35.725Z,69.80
2019-02-20T12:47:01.771Z,70.10
2019-02-20T12:49:27.793Z,97.20
2019-02-20T12:51:53.847Z,80.30
2019-02-20T12:54:19.863Z,81.10
2019-02-20T12:56:45.904Z,80.90
2019-02-20T12:59:11.926Z,81.30
2019-02-20T13:01:37.947Z,83.10
2019-02-20T13:04:04.015Z,83.60
2019-02-20T13:06:30.039Z,84.10
2019-02-20T13:08:56.074Z,84.90
2019-02-20T13:11:22.104Z,85.60
2019-02-20T13:13:49.131Z,85.50
2019-02-20T13:16:15.364Z,86.00
2019-02-20T13:18:41.375Z,86.10
2019-02-20T13:21:07.422Z,86.40
2019-02-20T13:23:33.430Z,87.00
2019-02-20T13:25:59.771Z,87.40
2019-02-20T13:28:25.841Z,87.90
2019-02-20T13:30:51.933Z,88.00
2019-02-20T13:33:17.948Z,88.30
2019-02-20T13:35:44.013Z,88.70
2019-02-20T13:38:10.026Z,87.80
2019-02-20T13:40:36.055Z,86.40
2019-02-20T13:43:02.074Z,85.90
2019-02-20T13:45:28.122Z,86.10
2019-02-20T13:47:54.328Z,84.00
2019-02-20T13:50:20.764Z,83.70
2019-02-20T13:52:52.323Z,69.60
2019-02-20T13:55:14.821Z,68.70
2019-02-20T13:57:40.947Z,68.90
2019-02-20T14:00:09.970Z,69.40
2019-02-20T14:02:36.004Z,70.30
2019-02-20T14:05:02.322Z,70.80
2019-02-20T14:07:28.448Z,71.40
2019-02-20T14:09:54.968Z,71.80
2019-02-20T14:12:21.007Z,72.20
2019-02-20T14:14:47.027Z,72.80
2019-02-20T14:17:13.164Z,72.90
2019-02-20T14:19:39.182Z,72.30
2019-02-20T14:22:05.211Z,72.60
2019-02-20T14:24:31.242Z,72.30
2019-02-20T14:26:57.381Z,73.10
2019-02-20T14:29:23.491Z,72.50
2019-02-20T14:31:49.963Z,71.50
2019-02-20T14:34:16.060Z,72.10
2019-02-20T14:36:42.107Z,72.00
2019-02-20T14:39:08.148Z,72.10
2019-02-20T14:41:34.175Z,71.80
2019-02-20T14:44:00.186Z,71.30
2019-02-20T14:46:26.221Z,71.00
2019-02-20T14:48:52.240Z,71.30
2019-02-20T14:51:18.282Z,70.90
2019-02-20T14:53:44.795Z,69.90
2019-02-20T14:56:10.836Z,69.00
2019-02-20T14:58:36.843Z,68.00
2019-02-20T15:01:03.372Z,67.20
2019-02-20T15:03:29.379Z,67.50
2019-02-20T15:05:55.391Z,67.50
2019-02-20T15:08:21.430Z,67.20
2019-02-20T15:10:47.452Z,66.60
2019-02-20T15:13:13.511Z,66.00
2019-02-20T15:15:39.840Z,66.00
2019-02-20T15:18:05.969Z,67.00
2019-02-20T15:20:32.001Z,66.00
2019-02-20T15:22:58.488Z,66.40
2019-02-20T15:25:24.580Z,67.00
2019-02-20T15:27:51.899Z,67.80
2019-02-20T15:30:17.904Z,67.30
2019-02-20T15:32:43.950Z,69.10
2019-02-20T15:35:10.378Z,69.90
2019-02-20T15:37:36.578Z,71.10
2019-02-20T15:40:04.400Z,71.40
2019-02-20T15:42:30.547Z,72.10
2019-02-20T15:44:56.568Z,72.50
2019-02-20T15:47:22.606Z,72.80
2019-02-20T15:49:48.615Z,73.40
2019-02-20T15:52:14.651Z,73.60
2019-02-20T15:54:40.665Z,73.80
2019-02-20T15:57:07.111Z,73.80
2019-02-20T15:59:33.220Z,74.20
2019-02-20T16:01:59.262Z,74.00
2019-02-20T16:04:25.275Z,74.10
2019-02-20T16:06:51.311Z,75.40
2019-02-20T16:09:17.327Z,74.80
2019-02-20T16:11:43.360Z,75.10
2019-02-20T16:14:09.401Z,75.70
2019-02-20T16:16:35.499Z,76.10
2019-02-20T16:19:01.927Z,76.60
2019-02-20T16:21:29.589Z,77.20
2019-02-20T16:23:55.892Z,76.50
2019-02-20T16:26:22.026Z,76.90
2019-02-20T16:28:48.148Z,76.90
2019-02-20T16:31:14.160Z,76.80
2019-02-20T16:33:40.834Z,76.80
2019-02-20T16:36:06.889Z,76.90
2019-02-20T16:38:32.920Z,78.00
2019-02-20T16:40:59.132Z,78.20
2019-02-20T16:43:25.196Z,78.70
2019-02-20T16:45:51.215Z,79.50
2019-02-20T16:48:17.245Z,79.80
2019-02-20T16:50:43.270Z,80.60
2019-02-20T16:53:09.300Z,80.80
2019-02-20T16:55:35.323Z,81.50
2019-02-20T16:58:03.871Z,82.20
2019-02-20T17:00:29.782Z,82.80
2019-02-20T17:02:55.816Z,83.80
2019-02-20T17:05:22.037Z,84.00
2019-02-20T17:07:48.063Z,84.10
2019-02-20T17:10:14.179Z,84.40
2019-02-20T17:12:40.400Z,85.60
2019-02-20T17:15:14.984Z,86.60
2019-02-20T17:17:41.071Z,87.00
2019-02-20T17:20:13.172Z,87.80
2019-02-20T17:22:39.283Z,88.00
2019-02-20T17:25:07.715Z,88.40
2019-02-20T17:30:05.585Z,99.90
2019-02-20T17:32:32.399Z,93.50
2019-02-20T17:34:58.436Z,92.50
2019-02-20T17:37:24.747Z,89.50
2019-02-20T17:39:50.779Z,99.90
2019-02-20T17:42:16.844Z,89.70
2019-02-20T17:44:42.960Z,90.40
2019-02-20T17:47:08.979Z,90.50
2019-02-20T17:49:35.048Z,90.70
2019-02-20T17:52:01.061Z,90.90
2019-02-20T17:54:27.138Z,90.90
2019-02-20T17:56:53.567Z,91.10
2019-02-20T17:59:19.608Z,91.30
2019-02-20T18:01:45.688Z,91.30
2019-02-20T18:04:11.759Z,91.30
2019-02-20T18:06:37.861Z,91.40
2019-02-20T18:09:05.493Z,91.60
2019-02-20T18:11:31.512Z,91.60
2019-02-20T18:13:57.575Z,91.80
2019-02-20T18:16:23.635Z,99.90
2019-02-20T18:18:49.671Z,92.10
2019-02-20T18:21:15.682Z,92.00
2019-02-20T18:23:41.716Z,92.10
2019-02-20T18:26:07.746Z,92.30
2019-02-20T18:28:33.855Z,92.60
2019-02-20T18:31:00.006Z,92.20
2019-02-20T18:33:26.020Z,92.20
2019-02-20T18:35:52.051Z,92.20
2019-02-20T18:38:18.075Z,92.30
2019-02-20T18:40:44.136Z,92.40
2019-02-20T18:43:10.310Z,92.50
2019-02-20T18:45:56.223Z,92.60
2019-02-20T18:48:22.311Z,92.70
2019-02-20T18:50:49.213Z,92.60
2019-02-20T18:53:15.240Z,92.60
2019-02-20T18:55:41.259Z,92.70
2019-02-20T18:58:07.268Z,93.10
2019-02-20T19:00:33.359Z,93.20
2019-02-20T19:03:00.048Z,93.10
2019-02-20T19:05:26.219Z,94.40
2019-02-20T19:07:52.221Z,93.10
2019-02-20T19:10:34.307Z,92.90
2019-02-20T19:13:21.906Z,92.50
2019-02-20T19:15:54.971Z,92.40
2019-02-20T19:18:31.119Z,92.50
2019-02-20T19:21:23.251Z,92.70
2019-02-20T19:24:13.092Z,92.60
2019-02-20T19:26:57.490Z,92.50
2019-02-20T19:29:47.507Z,92.50
2019-02-20T19:32:45.958Z,92.20
2019-02-20T19:35:24.331Z,92.50
2019-02-20T19:38:14.016Z,92.60
2019-02-20T19:41:12.476Z,92.50
2019-02-20T19:43:42.320Z,92.70
2019-02-20T19:46:18.103Z,93.40
2019-02-20T19:49:10.452Z,93.00
2019-02-20T19:51:52.167Z,92.80
2019-02-20T19:54:22.011Z,92.90
2019-02-20T19:57:14.636Z,93.20
2019-02-20T19:59:53.189Z,93.30
2019-02-20T20:02:28.896Z,93.30
2019-02-20T20:05:07.638Z,93.50
2019-02-20T20:07:49.415Z,93.70
2019-02-20T20:10:31.372Z,94.20
2019-02-20T20:13:19.077Z,93.80
2019-02-20T20:16:01.247Z,93.80
2019-02-20T20:18:45.857Z,93.30
2019-02-20T20:21:24.588Z,93.00
2019-02-20T20:24:00.550Z,92.80
2019-02-20T20:26:47.282Z,93.10
2019-02-20T20:29:42.576Z,93.40
2019-02-20T20:32:18.067Z,93.20
2019-02-20T20:35:03.069Z,93.00
2019-02-20T20:37:32.900Z,93.20
2019-02-20T20:40:17.935Z,93.30
2019-02-20T20:42:51.862Z,93.10
2019-02-20T20:45:39.901Z,93.10
2019-02-20T20:48:27.371Z,93.00
2019-02-20T20:51:09.583Z,92.80
2019-02-20T20:54:03.500Z,92.40
2019-02-20T20:56:42.546Z,92.80
2019-02-20T20:59:21.263Z,92.90
2019-02-20T21:01:51.132Z,93.20
2019-02-20T21:04:51.135Z,93.10
2019-02-20T21:07:37.966Z,93.10
2019-02-20T21:10:34.852Z,93.20
2019-02-20T21:13:21.684Z,93.40
2019-02-20T21:16:08.397Z,93.60
2019-02-20T21:18:58.995Z,93.40
2019-02-20T21:21:31.839Z,93.50
2019-02-20T21:24:02.068Z,93.30
2019-02-20T21:26:43.645Z,93.50
2019-02-20T21:29:34.303Z,93.70
2019-02-20T21:32:04.148Z,93.80
2019-02-20T21:34:36.724Z,93.90
2019-02-20T21:37:33.632Z,93.90
2019-02-20T21:40:09.803Z,93.90
2019-02-20T21:42:45.676Z,93.90
2019-02-20T21:45:15.496Z,93.50
2019-02-20T21:48:08.128Z,93.60
2019-02-20T21:50:47.020Z,93.80
2019-02-20T21:53:23.127Z,94.30
2019-02-20T21:55:59.103Z,94.50
2019-02-20T21:58:43.812Z,94.10
2019-02-20T22:01:40.806Z,94.00
2019-02-20T22:04:10.639Z,94.10
2019-02-20T22:07:02.047Z,94.20
2019-02-20T22:09:41.177Z,94.10
2019-02-20T22:12:27.499Z,94.50
2019-02-20T22:15:27.647Z,94.40
2019-02-20T22:17:57.531Z,94.70
2019-02-20T22:20:33.412Z,94.60
2019-02-20T22:23:33.225Z,95.00
2019-02-20T22:26:08.783Z,95.30
2019-02-20T22:28:44.388Z,95.10
2019-02-20T22:31:32.184Z,95.00
2019-02-20T22:34:17.206Z,94.60
2019-02-20T22:36:53.369Z,94.30
2019-02-20T22:39:44.492Z,94.50
2019-02-20T22:42:16.999Z,94.60
2019-02-20T22:45:03.257Z,94.60
2019-02-20T22:47:59.263Z,94.60
2019-02-20T22:51:02.971Z,94.70
2019-02-20T22:53:38.433Z,94.70
2019-02-20T22:56:37.156Z,94.60
2019-02-20T22:59:31.151Z,95.00
2019-02-20T23:02:01.050Z,95.20
2019-02-20T23:04:30.903Z,95.30
2019-02-20T23:07:00.745Z,94.80
2019-02-20T23:10:08.484Z,94.40
2019-02-20T23:12:56.204Z,94.30
2019-02-20T23:15:22.315Z,94.40
2019-02-20T23:17:48.346Z,94.80
2019-02-20T23:20:14.551Z,94.30
2019-02-20T23:22:40.583Z,94.10
2019-02-20T23:25:06.596Z,94.50
2019-02-20T23:27:32.631Z,94.20
2019-02-20T23:29:58.649Z,94.10
2019-02-20T23:32:24.666Z,93.60
2019-02-20T23:34:50.693Z,93.80
2019-02-20T23:37:16.707Z,94.30
2019-02-20T23:39:42.734Z,94.70
2019-02-20T23:42:08.848Z,94.80
2019-02-20T23:44:35.476Z,94.70
2019-02-20T23:47:01.487Z,94.50
2019-02-20T23:49:27.515Z,94.10
2019-02-20T23:51:53.526Z,94.20
2019-02-20T23:54:19.573Z,94.10
2019-02-20T23:56:45.700Z,94.10
2019-02-20T23:59:13.833Z,94.30
